createdAt,value
2017-09-05T00:00:25.943Z,0
2017-09-05T00:01:25.931Z,0
2017-09-05T00:02:25.904Z,0
2017-09-05T00:03:25.880Z,0
2017-09-05T00:04:25.570Z,0
2017-09-05T00:05:25.872Z,0
2017-09-05T00:06:25.630Z,0
2017-09-05T00:07:25.578Z,0
2017-09-05T00:08:25.809Z,0
2017-09-05T00:09:25.790Z,0
2017-09-05T00:10:25.469Z,0
2017-09-05T00:11:25.240Z,0
2017-09-05T00:12:25.543Z,0
2017-09-05T00:13:25.137Z,0
2017-09-05T00:14:25.410Z,0
2017-09-05T00:15:25.719Z,0
2017-09-05T00:16:25.679Z,0
2017-09-05T00:17:25.350Z,0
2017-09-05T00:18:25.452Z,0
2017-09-05T00:19:25.439Z,0
2017-09-05T00:20:25.418Z,0
2017-09-05T00:21:25.390Z,0
2017-09-05T00:22:25.280Z,0
2017-09-05T00:23:25.599Z,0
2017-09-05T00:24:25.248Z,0
2017-09-05T00:25:25.215Z,0
2017-09-05T00:26:25.521Z,0
2017-09-05T00:27:25.214Z,0
2017-09-05T00:28:25.498Z,0
2017-09-05T00:29:24.866Z,0
2017-09-05T00:30:25.189Z,0
2017-09-05T00:31:25.448Z,0
2017-09-05T00:32:25.129Z,0
2017-09-05T00:33:25.097Z,0
2017-09-05T00:34:24.771Z,0
2017-09-05T00:35:25.067Z,0
2017-09-05T00:36:25.090Z,0
2017-09-05T00:37:25.354Z,0
2017-09-05T00:38:25.340Z,0
2017-09-05T00:39:24.701Z,0
2017-09-05T00:40:24.990Z,0
2017-09-05T00:41:25.279Z,0
2017-09-05T00:42:25.273Z,0
2017-09-05T00:43:25.290Z,0
2017-09-05T00:44:24.297Z,0
2017-09-05T00:45:24.590Z,0
2017-09-05T00:46:24.584Z,0
2017-09-05T00:47:24.879Z,0
2017-09-05T00:48:25.241Z,0
2017-09-05T00:49:24.840Z,0
2017-09-05T00:50:24.528Z,0
2017-09-05T00:51:24.821Z,0
2017-09-05T00:52:24.800Z,0
2017-09-05T00:53:24.801Z,0
2017-09-05T00:54:24.133Z,0
2017-09-05T00:55:24.137Z,0
2017-09-05T00:56:25.051Z,0
2017-09-05T00:57:24.421Z,0
2017-09-05T00:58:24.709Z,0
2017-09-05T00:59:24.983Z,0
2017-09-05T01:00:24.720Z,0
2017-09-05T01:01:24.657Z,0
2017-09-05T01:02:24.653Z,0
2017-09-05T01:03:24.304Z,0
2017-09-05T01:04:24.372Z,0
2017-09-05T01:05:24.288Z,0
2017-09-05T01:06:24.659Z,0
2017-09-05T01:07:24.870Z,0
2017-09-05T01:08:24.620Z,0
2017-09-05T01:09:24.504Z,0
2017-09-05T01:10:24.552Z,0
2017-09-05T01:11:24.161Z,0
2017-09-05T01:12:24.833Z,0
2017-09-05T01:13:24.141Z,0
2017-09-05T01:14:24.509Z,0
2017-09-05T01:15:24.723Z,0
2017-09-05T01:16:24.247Z,0
2017-09-05T01:17:24.761Z,0
2017-09-05T01:18:24.410Z,0
2017-09-05T01:19:24.367Z,0
2017-09-05T01:20:24.082Z,0
2017-09-05T01:21:24.130Z,0
2017-09-05T01:22:24.419Z,0
2017-09-05T01:23:24.291Z,0
2017-09-05T01:24:24.343Z,0
2017-09-05T01:25:24.141Z,0
2017-09-05T01:26:24.240Z,0
2017-09-05T01:27:24.569Z,0
2017-09-05T01:28:23.930Z,0
2017-09-05T01:29:23.905Z,0
2017-09-05T01:30:23.946Z,0
2017-09-05T01:31:24.145Z,0
2017-09-05T01:32:24.154Z,0
2017-09-05T01:33:24.164Z,0
2017-09-05T01:34:24.429Z,0
2017-09-05T01:35:24.201Z,0
2017-09-05T01:36:24.090Z,0
2017-09-05T01:37:24.075Z,0
2017-09-05T01:38:24.121Z,0
2017-09-05T01:39:24.041Z,0
2017-09-05T01:40:24.350Z,0
2017-09-05T01:41:23.999Z,0
2017-09-05T01:42:23.989Z,0
2017-09-05T01:43:24.280Z,0
2017-09-05T01:44:24.288Z,0
2017-09-05T01:45:23.992Z,0
2017-09-05T01:46:24.225Z,0
2017-09-05T01:47:24.270Z,0
2017-09-05T01:48:23.889Z,0
2017-09-05T01:49:23.937Z,0
2017-09-05T01:50:23.914Z,0
2017-09-05T01:51:24.150Z,0
2017-09-05T01:52:23.824Z,0
2017-09-05T01:53:24.121Z,0
2017-09-05T01:54:23.821Z,0
2017-09-05T01:55:23.779Z,0
2017-09-05T01:56:24.084Z,0
2017-09-05T01:57:23.503Z,0
2017-09-05T01:58:24.042Z,0
2017-09-05T01:59:24.051Z,0
2017-09-05T02:00:24.002Z,0
2017-09-05T02:01:24.016Z,0
2017-09-05T02:02:23.676Z,0
2017-09-05T02:03:23.991Z,0
2017-09-05T02:04:23.962Z,0
2017-09-05T02:05:23.606Z,0
2017-09-05T02:06:23.911Z,0
2017-09-05T02:07:23.918Z,0
2017-09-05T02:08:23.892Z,0
2017-09-05T02:09:22.942Z,0
2017-09-05T02:10:23.841Z,0
2017-09-05T02:11:23.851Z,0
2017-09-05T02:12:23.253Z,0
2017-09-05T02:13:23.470Z,0
2017-09-05T02:14:23.480Z,0
2017-09-05T02:15:23.459Z,0
2017-09-05T02:16:23.523Z,0
2017-09-05T02:17:23.411Z,0
2017-09-05T02:18:23.101Z,0
2017-09-05T02:19:23.079Z,0
2017-09-05T02:20:23.386Z,0
2017-09-05T02:21:23.693Z,0
2017-09-05T02:22:23.329Z,0
2017-09-05T02:23:23.640Z,0
2017-09-05T02:24:23.610Z,0
2017-09-05T02:25:23.592Z,0
2017-09-05T02:26:23.580Z,0
2017-09-05T02:27:23.583Z,0
2017-09-05T02:28:23.535Z,0
2017-09-05T02:29:23.531Z,0
2017-09-05T02:30:23.521Z,0
2017-09-05T02:31:23.183Z,0
2017-09-05T02:32:22.862Z,0
2017-09-05T02:33:23.470Z,0
2017-09-05T02:34:22.827Z,0
2017-09-05T02:35:23.661Z,0
2017-09-05T02:36:23.100Z,0
2017-09-05T02:37:23.090Z,0
2017-09-05T02:38:23.376Z,0
2017-09-05T02:39:22.740Z,0
2017-09-05T02:40:23.350Z,0
2017-09-05T02:41:23.045Z,0
2017-09-05T02:42:22.696Z,0
2017-09-05T02:43:22.982Z,0
2017-09-05T02:44:22.660Z,0
2017-09-05T02:45:22.950Z,0
2017-09-05T02:46:22.951Z,0
2017-09-05T02:47:22.932Z,0
2017-09-05T02:48:22.900Z,0
2017-09-05T02:49:22.573Z,0
2017-09-05T02:50:22.870Z,0
2017-09-05T02:51:22.545Z,0
2017-09-05T02:52:22.534Z,0
2017-09-05T02:53:22.507Z,0
2017-09-05T02:54:23.106Z,0
2017-09-05T02:55:22.799Z,0
2017-09-05T02:56:22.784Z,0
2017-09-05T02:57:22.450Z,0
2017-09-05T02:58:22.429Z,0
2017-09-05T02:59:22.719Z,0
2017-09-05T03:00:22.720Z,0
2017-09-05T03:01:22.999Z,0
2017-09-05T03:02:22.361Z,0
2017-09-05T03:03:22.789Z,0
2017-09-05T03:04:22.951Z,0
2017-09-05T03:05:22.930Z,0
2017-09-05T03:06:22.612Z,0
2017-09-05T03:07:22.891Z,0
2017-09-05T03:08:22.871Z,0
2017-09-05T03:09:22.536Z,0
2017-09-05T03:10:22.540Z,0
2017-09-05T03:11:22.194Z,0
2017-09-05T03:12:22.833Z,0
2017-09-05T03:13:22.809Z,0
2017-09-05T03:14:22.470Z,0
2017-09-05T03:15:22.470Z,0
2017-09-05T03:16:22.121Z,0
2017-09-05T03:17:22.761Z,0
2017-09-05T03:18:22.731Z,0
2017-09-05T03:19:22.711Z,0
2017-09-05T03:20:22.696Z,0
2017-09-05T03:21:22.046Z,0
2017-09-05T03:22:22.340Z,0
2017-09-05T03:23:22.332Z,0
2017-09-05T03:24:21.999Z,0
2017-09-05T03:25:21.990Z,0
2017-09-05T03:26:22.301Z,0
2017-09-05T03:27:22.261Z,0
2017-09-05T03:28:22.306Z,0
2017-09-05T03:29:22.588Z,0
2017-09-05T03:30:21.899Z,0
2017-09-05T03:31:22.498Z,0
2017-09-05T03:32:22.588Z,0
2017-09-05T03:33:22.479Z,0
2017-09-05T03:34:22.160Z,0
2017-09-05T03:35:21.870Z,0
2017-09-05T03:36:22.171Z,0
2017-09-05T03:37:22.400Z,0
2017-09-05T03:38:21.539Z,0
2017-09-05T03:39:21.756Z,0
2017-09-05T03:40:22.089Z,0
2017-09-05T03:41:21.721Z,0
2017-09-05T03:42:22.110Z,0
2017-09-05T03:43:22.208Z,0
2017-09-05T03:44:21.989Z,0
2017-09-05T03:45:22.010Z,0
2017-09-05T03:46:21.966Z,0
2017-09-05T03:47:22.262Z,0
2017-09-05T03:48:21.928Z,0
2017-09-05T03:49:21.591Z,0
2017-09-05T03:50:21.565Z,0
2017-09-05T03:51:21.895Z,0
2017-09-05T03:52:21.869Z,0
2017-09-05T03:53:21.839Z,0
2017-09-05T03:54:21.512Z,0
2017-09-05T03:55:22.211Z,0
2017-09-05T03:56:22.089Z,0
2017-09-05T03:57:21.767Z,0
2017-09-05T03:58:21.750Z,0
2017-09-05T03:59:21.778Z,0
2017-09-05T04:00:21.402Z,0
2017-09-05T04:01:21.691Z,0
2017-09-05T04:02:21.747Z,0
2017-09-05T04:03:21.654Z,0
2017-09-05T04:04:21.689Z,0
2017-09-05T04:05:22.009Z,0
2017-09-05T04:06:21.681Z,0
2017-09-05T04:07:20.976Z,0
2017-09-05T04:08:21.277Z,0
2017-09-05T04:09:21.927Z,0
2017-09-05T04:10:21.748Z,0
2017-09-05T04:11:21.544Z,0
2017-09-05T04:12:21.891Z,0
2017-09-05T04:13:21.852Z,0
2017-09-05T04:14:21.164Z,0
2017-09-05T04:15:21.480Z,0
2017-09-05T04:16:21.831Z,0
2017-09-05T04:17:21.431Z,0
2017-09-05T04:18:21.426Z,0
2017-09-05T04:19:21.738Z,0
2017-09-05T04:20:21.403Z,0
2017-09-05T04:21:21.421Z,0
2017-09-05T04:22:21.670Z,0
2017-09-05T04:23:21.641Z,0
2017-09-05T04:24:21.706Z,0
2017-09-05T04:25:21.728Z,0
2017-09-05T04:26:21.667Z,0
2017-09-05T04:27:21.667Z,4
2017-09-05T04:28:21.587Z,4
2017-09-05T04:29:21.350Z,0
2017-09-05T04:30:21.447Z,4
2017-09-05T04:31:20.904Z,0
2017-09-05T04:32:21.597Z,4
2017-09-05T04:33:21.169Z,4
2017-09-05T04:34:21.462Z,4
2017-09-05T04:35:21.453Z,8
2017-09-05T04:36:21.110Z,8
2017-09-05T04:37:21.089Z,8
2017-09-05T04:38:20.772Z,12
2017-09-05T04:39:21.070Z,12
2017-09-05T04:40:21.056Z,12
2017-09-05T04:41:21.040Z,16
2017-09-05T04:42:21.031Z,16
2017-09-05T04:43:21.016Z,16
2017-09-05T04:44:20.679Z,20
2017-09-05T04:45:21.271Z,24
2017-09-05T04:46:21.279Z,24
2017-09-05T04:47:20.625Z,32
2017-09-05T04:48:21.233Z,32
2017-09-05T04:49:21.203Z,32
2017-09-05T04:50:21.210Z,36
2017-09-05T04:51:21.179Z,44
2017-09-05T04:52:21.155Z,44
2017-09-05T04:53:21.138Z,52
2017-09-05T04:54:21.125Z,56
2017-09-05T04:55:21.114Z,60
2017-09-05T04:56:21.101Z,64
2017-09-05T04:57:21.077Z,76
2017-09-05T04:58:21.134Z,80
2017-09-05T04:59:20.740Z,84
2017-09-05T05:00:20.719Z,88
2017-09-05T05:01:20.726Z,96
2017-09-05T05:02:20.982Z,104
2017-09-05T05:03:20.360Z,112
2017-09-05T05:04:20.981Z,124
2017-09-05T05:05:20.319Z,136
2017-09-05T05:06:20.620Z,148
2017-09-05T05:07:20.610Z,160
2017-09-05T05:08:20.602Z,176
2017-09-05T05:09:20.599Z,184
2017-09-05T05:10:20.575Z,196
2017-09-05T05:11:20.530Z,204
2017-09-05T05:12:20.543Z,208
2017-09-05T05:13:20.507Z,208
2017-09-05T05:14:20.168Z,216
2017-09-05T05:15:20.792Z,216
2017-09-05T05:16:20.154Z,216
2017-09-05T05:17:20.780Z,212
2017-09-05T05:18:20.427Z,208
2017-09-05T05:19:20.401Z,212
2017-09-05T05:20:20.699Z,224
2017-09-05T05:21:20.130Z,236
2017-09-05T05:22:20.044Z,248
2017-09-05T05:23:20.652Z,260
2017-09-05T05:24:20.319Z,272
2017-09-05T05:25:20.324Z,288
2017-09-05T05:26:20.271Z,300
2017-09-05T05:27:20.280Z,324
2017-09-05T05:28:20.254Z,352
2017-09-05T05:29:20.236Z,384
2017-09-05T05:30:19.906Z,420
2017-09-05T05:31:19.903Z,444
2017-09-05T05:32:20.191Z,468
2017-09-05T05:33:20.171Z,488
2017-09-05T05:34:20.483Z,504
2017-09-05T05:35:20.429Z,516
2017-09-05T05:36:20.451Z,564
2017-09-05T05:37:20.412Z,648
2017-09-05T05:38:19.894Z,700
2017-09-05T05:39:20.080Z,708
2017-09-05T05:40:19.737Z,728
2017-09-05T05:41:20.039Z,772
2017-09-05T05:42:19.770Z,808
2017-09-05T05:43:20.322Z,840
2017-09-05T05:44:19.977Z,872
2017-09-05T05:45:19.998Z,900
2017-09-05T05:46:20.269Z,940
2017-09-05T05:47:20.029Z,972
2017-09-05T05:48:19.970Z,1000
2017-09-05T05:49:20.211Z,1032
2017-09-05T05:50:20.198Z,1060
2017-09-05T05:51:20.197Z,1088
2017-09-05T05:52:19.861Z,1144
2017-09-05T05:53:19.839Z,1204
2017-09-05T05:54:19.898Z,1276
2017-09-05T05:55:19.831Z,1384
2017-09-05T05:56:19.801Z,1516
2017-09-05T05:57:19.465Z,1616
2017-09-05T05:58:19.749Z,1704
2017-09-05T05:59:20.031Z,1824
2017-09-05T06:00:19.401Z,1992
2017-09-05T06:01:19.399Z,2056
2017-09-05T06:02:19.739Z,1836
2017-09-05T06:03:19.669Z,1652
2017-09-05T06:04:19.649Z,1672
2017-09-05T06:05:19.645Z,1844
2017-09-05T06:06:19.722Z,2076
2017-09-05T06:07:19.657Z,2124
2017-09-05T06:08:19.891Z,2064
2017-09-05T06:09:19.642Z,1932
2017-09-05T06:10:19.244Z,1668
2017-09-05T06:11:19.220Z,1356
2017-09-05T06:12:19.552Z,1084
2017-09-05T06:13:19.192Z,928
2017-09-05T06:14:19.918Z,876
2017-09-05T06:15:19.470Z,872
2017-09-05T06:16:19.769Z,884
2017-09-05T06:17:19.429Z,1000
2017-09-05T06:18:19.498Z,1100
2017-09-05T06:19:19.729Z,1152
2017-09-05T06:20:19.713Z,1116
2017-09-05T06:21:19.375Z,1028
2017-09-05T06:22:19.417Z,980
2017-09-05T06:23:19.652Z,1036
2017-09-05T06:24:19.350Z,1084
2017-09-05T06:25:19.323Z,1120
2017-09-05T06:26:18.675Z,1144
2017-09-05T06:27:19.295Z,1136
2017-09-05T06:28:19.566Z,1044
2017-09-05T06:29:19.251Z,1032
2017-09-05T06:30:18.914Z,1088
2017-09-05T06:31:18.909Z,1048
2017-09-05T06:32:19.240Z,996
2017-09-05T06:33:19.498Z,1016
2017-09-05T06:34:19.178Z,1084
2017-09-05T06:35:19.481Z,1320
2017-09-05T06:36:19.460Z,1468
2017-09-05T06:37:19.440Z,1356
2017-09-05T06:38:19.092Z,1348
2017-09-05T06:39:19.534Z,1552
2017-09-05T06:40:19.398Z,1628
2017-09-05T06:41:19.469Z,1536
2017-09-05T06:42:19.362Z,1656
2017-09-05T06:43:19.351Z,1628
2017-09-05T06:44:19.021Z,1608
2017-09-05T06:45:18.987Z,1828
2017-09-05T06:46:19.351Z,1940
2017-09-05T06:47:19.289Z,1840
2017-09-05T06:48:19.321Z,1892
2017-09-05T06:49:19.281Z,2168
2017-09-05T06:50:19.299Z,2188
2017-09-05T06:51:19.203Z,2484
2017-09-05T06:52:18.646Z,3388
2017-09-05T06:53:18.854Z,4400
2017-09-05T06:54:18.927Z,4552
2017-09-05T06:55:18.504Z,4292
2017-09-05T06:56:18.848Z,4372
2017-09-05T06:57:18.800Z,4648
2017-09-05T06:58:19.109Z,5012
2017-09-05T06:59:19.081Z,5636
2017-09-05T07:00:19.133Z,5212
2017-09-05T07:01:18.725Z,4836
2017-09-05T07:02:19.070Z,4596
2017-09-05T07:03:18.690Z,5040
2017-09-05T07:04:19.053Z,4936
2017-09-05T07:05:19.036Z,4292
2017-09-05T07:06:18.655Z,3756
2017-09-05T07:07:19.043Z,3140
2017-09-05T07:08:18.941Z,2964
2017-09-05T07:09:18.931Z,2856
2017-09-05T07:10:18.919Z,2724
2017-09-05T07:11:18.581Z,2512
2017-09-05T07:12:18.890Z,2404
2017-09-05T07:13:18.539Z,2400
2017-09-05T07:14:18.527Z,2428
2017-09-05T07:15:18.565Z,2528
2017-09-05T07:16:18.543Z,2656
2017-09-05T07:17:18.479Z,2804
2017-09-05T07:18:18.817Z,2952
2017-09-05T07:19:18.755Z,3088
2017-09-05T07:20:18.739Z,3216
2017-09-05T07:21:18.740Z,3356
2017-09-05T07:22:18.149Z,3484
2017-09-05T07:23:18.682Z,3628
2017-09-05T07:24:18.709Z,3744
2017-09-05T07:25:18.360Z,3780
2017-09-05T07:26:18.371Z,3784
2017-09-05T07:27:18.366Z,3792
2017-09-05T07:28:18.011Z,3768
2017-09-05T07:29:17.707Z,3764
2017-09-05T07:30:18.291Z,3812
2017-09-05T07:31:17.948Z,3932
2017-09-05T07:32:18.243Z,4080
2017-09-05T07:33:17.908Z,4344
2017-09-05T07:34:18.560Z,4768
2017-09-05T07:35:17.889Z,4932
2017-09-05T07:36:17.867Z,5004
2017-09-05T07:37:17.868Z,4852
2017-09-05T07:38:18.199Z,4848
2017-09-05T07:39:17.828Z,4868
2017-09-05T07:40:18.430Z,4492
2017-09-05T07:41:17.799Z,4288
2017-09-05T07:42:18.421Z,4272
2017-09-05T07:43:18.371Z,4204
2017-09-05T07:44:18.058Z,4136
2017-09-05T07:45:18.344Z,4096
2017-09-05T07:46:17.718Z,4088
2017-09-05T07:47:17.720Z,4056
2017-09-05T07:48:17.996Z,4220
2017-09-05T07:49:17.669Z,4476
2017-09-05T07:50:18.269Z,4808
2017-09-05T07:51:17.933Z,5208
2017-09-05T07:52:17.936Z,5672
2017-09-05T07:53:18.241Z,5836
2017-09-05T07:54:18.229Z,6048
2017-09-05T07:55:18.197Z,6116
2017-09-05T07:56:17.899Z,6732
2017-09-05T07:57:18.169Z,7836
2017-09-05T07:58:17.899Z,7780
2017-09-05T07:59:18.125Z,8216
2017-09-05T08:00:17.848Z,8428
2017-09-05T08:01:18.115Z,9072
2017-09-05T08:02:18.339Z,10052
2017-09-05T08:03:17.778Z,11300
2017-09-05T08:04:18.059Z,11360
2017-09-05T08:05:17.737Z,12544
2017-09-05T08:06:17.465Z,11728
2017-09-05T08:07:17.401Z,12404
2017-09-05T08:08:18.281Z,14352
2017-09-05T08:09:17.691Z,14372
2017-09-05T08:10:17.345Z,14864
2017-09-05T08:11:17.957Z,17376
2017-09-05T08:12:17.653Z,15460
2017-09-05T08:13:17.629Z,14084
2017-09-05T08:14:17.608Z,15932
2017-09-05T08:15:17.909Z,17440
2017-09-05T08:16:17.588Z,17344
2017-09-05T08:17:17.262Z,17824
2017-09-05T08:18:17.546Z,22560
2017-09-05T08:19:17.859Z,23904
2017-09-05T08:20:17.520Z,39968
2017-09-05T08:21:17.884Z,73056
2017-09-05T08:22:17.498Z,32768
2017-09-05T08:23:17.530Z,34816
2017-09-05T08:24:17.809Z,35776
2017-09-05T08:25:17.790Z,40192
2017-09-05T08:26:17.148Z,22112
2017-09-05T08:27:17.758Z,24704
2017-09-05T08:28:17.757Z,32576
2017-09-05T08:29:17.868Z,45408
2017-09-05T08:30:17.431Z,28192
2017-09-05T08:31:17.779Z,47616
2017-09-05T08:32:17.418Z,42816
2017-09-05T08:33:17.117Z,42944
2017-09-05T08:34:16.762Z,38720
2017-09-05T08:35:17.681Z,66720
2017-09-05T08:36:17.360Z,52544
2017-09-05T08:37:17.044Z,59744
2017-09-05T08:38:17.338Z,49536
2017-09-05T08:39:17.693Z,45024
2017-09-05T08:40:17.342Z,36800
2017-09-05T08:41:17.712Z,30176
2017-09-05T08:42:17.328Z,27328
2017-09-05T08:43:17.609Z,28736
2017-09-05T08:44:16.986Z,26240
2017-09-05T08:45:17.598Z,24896
2017-09-05T08:46:17.639Z,13588
2017-09-05T08:47:17.269Z,15184
2017-09-05T08:48:17.309Z,21152
2017-09-05T08:49:17.259Z,32480
2017-09-05T08:50:17.272Z,31872
2017-09-05T08:51:16.921Z,38048
2017-09-05T08:52:17.243Z,38208
2017-09-05T08:53:17.241Z,36448
2017-09-05T08:54:17.520Z,43200
2017-09-05T08:55:17.211Z,30080
2017-09-05T08:56:17.517Z,22464
2017-09-05T08:57:17.502Z,25568
2017-09-05T08:58:17.176Z,22176
2017-09-05T08:59:17.178Z,33696
2017-09-05T09:00:17.490Z,34944
2017-09-05T09:01:16.852Z,41248
2017-09-05T09:02:16.841Z,35264
2017-09-05T09:03:16.845Z,41888
2017-09-05T09:04:17.207Z,50912
2017-09-05T09:05:16.508Z,39776
2017-09-05T09:06:17.441Z,53024
2017-09-05T09:07:17.117Z,67008
2017-09-05T09:08:17.437Z,62592
2017-09-05T09:09:17.121Z,46880
2017-09-05T09:10:17.204Z,33280
2017-09-05T09:11:17.108Z,36192
2017-09-05T09:12:17.117Z,25184
2017-09-05T09:13:17.094Z,18624
2017-09-05T09:14:17.341Z,17504
2017-09-05T09:15:17.383Z,23232
2017-09-05T09:16:17.070Z,23712
2017-09-05T09:17:17.085Z,23424
2017-09-05T09:18:17.370Z,24512
2017-09-05T09:19:17.377Z,20352
2017-09-05T09:20:17.370Z,24736
2017-09-05T09:21:17.061Z,57472
2017-09-05T09:22:16.714Z,41728
2017-09-05T09:23:17.028Z,37216
2017-09-05T09:24:17.080Z,29024
2017-09-05T09:25:16.700Z,32832
2017-09-05T09:26:16.916Z,32672
2017-09-05T09:27:17.311Z,44320
2017-09-05T09:28:16.996Z,38080
2017-09-05T09:29:17.028Z,38336
2017-09-05T09:30:16.967Z,38816
2017-09-05T09:31:16.970Z,47040
2017-09-05T09:32:16.970Z,38368
2017-09-05T09:33:17.270Z,34880
2017-09-05T09:34:17.255Z,34624
2017-09-05T09:35:17.247Z,19232
2017-09-05T09:36:16.934Z,43584
2017-09-05T09:37:17.249Z,49088
2017-09-05T09:38:16.939Z,32160
2017-09-05T09:39:17.249Z,36608
2017-09-05T09:40:17.225Z,43392
2017-09-05T09:41:17.208Z,49280
2017-09-05T09:42:16.899Z,39808
2017-09-05T09:43:17.001Z,44032
2017-09-05T09:44:17.198Z,42240
2017-09-05T09:45:16.944Z,30848
2017-09-05T09:46:16.880Z,34176
2017-09-05T09:47:17.389Z,15700
2017-09-05T09:48:16.874Z,31648
2017-09-05T09:49:16.860Z,32288
2017-09-05T09:50:16.860Z,54912
2017-09-05T09:51:16.858Z,60640
2017-09-05T09:52:17.158Z,32672
2017-09-05T09:53:17.137Z,35936
2017-09-05T09:54:17.267Z,36128
2017-09-05T09:55:16.902Z,44416
2017-09-05T09:56:17.151Z,47424
2017-09-05T09:57:16.782Z,32928
2017-09-05T09:58:17.187Z,29056
2017-09-05T09:59:17.130Z,19488
2017-09-05T10:00:16.784Z,18400
2017-09-05T10:01:16.806Z,27392
2017-09-05T10:02:16.841Z,25344
2017-09-05T10:03:17.072Z,18176
2017-09-05T10:04:17.056Z,22656
2017-09-05T10:05:17.038Z,19392
2017-09-05T10:06:17.069Z,12932
2017-09-05T10:07:16.739Z,28320
2017-09-05T10:08:17.030Z,23488
2017-09-05T10:09:16.729Z,27232
2017-09-05T10:10:16.707Z,26624
2017-09-05T10:11:16.721Z,15520
2017-09-05T10:12:16.700Z,28576
2017-09-05T10:13:17.007Z,26976
2017-09-05T10:14:16.991Z,25280
2017-09-05T10:15:16.909Z,36992
2017-09-05T10:16:17.001Z,24928
2017-09-05T10:17:16.999Z,14344
2017-09-05T10:18:16.968Z,41248
2017-09-05T10:19:16.950Z,46240
2017-09-05T10:20:16.950Z,43872
2017-09-05T10:21:16.947Z,45152
2017-09-05T10:22:16.950Z,36256
2017-09-05T10:23:16.944Z,17696
2017-09-05T10:24:16.932Z,28864
2017-09-05T10:25:16.953Z,39040
2017-09-05T10:26:16.911Z,39616
2017-09-05T10:27:16.889Z,13840
2017-09-05T10:28:16.901Z,12472
2017-09-05T10:29:16.891Z,10364
2017-09-05T10:30:16.928Z,28128
2017-09-05T10:31:16.973Z,10496
2017-09-05T10:32:16.900Z,7356
2017-09-05T10:33:16.855Z,6084
2017-09-05T10:34:16.890Z,6460
2017-09-05T10:35:16.740Z,6612
2017-09-05T10:36:16.558Z,6164
2017-09-05T10:37:16.896Z,6136
2017-09-05T10:38:16.507Z,6064
2017-09-05T10:39:16.809Z,5852
2017-09-05T10:40:16.533Z,5148
2017-09-05T10:41:16.802Z,4340
2017-09-05T10:42:16.795Z,3660
2017-09-05T10:43:16.826Z,3612
2017-09-05T10:44:16.761Z,3588
2017-09-05T10:45:16.762Z,3456
2017-09-05T10:46:16.788Z,3564
2017-09-05T10:47:16.751Z,4040
2017-09-05T10:48:16.732Z,4072
2017-09-05T10:49:16.723Z,4280
2017-09-05T10:50:16.761Z,4728
2017-09-05T10:51:16.710Z,5460
2017-09-05T10:52:16.690Z,6440
2017-09-05T10:53:16.682Z,7648
2017-09-05T10:54:16.387Z,10064
2017-09-05T10:55:16.685Z,10476
2017-09-05T10:56:16.646Z,9700
2017-09-05T10:57:16.318Z,11036
2017-09-05T10:58:16.625Z,12720
2017-09-05T10:59:16.328Z,12172
2017-09-05T11:00:16.631Z,12096
2017-09-05T11:01:15.666Z,10432
2017-09-05T11:02:16.624Z,8500
2017-09-05T11:03:16.292Z,8440
2017-09-05T11:04:15.946Z,8628
2017-09-05T11:05:16.345Z,10864
2017-09-05T11:06:16.247Z,12356
2017-09-05T11:07:16.567Z,13436
2017-09-05T11:08:16.249Z,13740
2017-09-05T11:09:16.546Z,10660
2017-09-05T11:10:16.222Z,13368
2017-09-05T11:11:16.251Z,14680
2017-09-05T11:12:16.539Z,14800
2017-09-05T11:13:16.494Z,13148
2017-09-05T11:14:16.179Z,10344
2017-09-05T11:15:16.254Z,9648
2017-09-05T11:16:16.167Z,13472
2017-09-05T11:17:16.492Z,12988
2017-09-05T11:18:16.459Z,11480
2017-09-05T11:19:16.217Z,10404
2017-09-05T11:20:16.445Z,11676
2017-09-05T11:21:16.137Z,11696
2017-09-05T11:22:16.446Z,15264
2017-09-05T11:23:16.119Z,13808
2017-09-05T11:24:16.460Z,14404
2017-09-05T11:25:16.495Z,12200
2017-09-05T11:26:15.753Z,10776
2017-09-05T11:27:16.393Z,11188
2017-09-05T11:28:16.299Z,12556
2017-09-05T11:29:16.368Z,10404
2017-09-05T11:30:16.362Z,10056
2017-09-05T11:31:16.148Z,10052
2017-09-05T11:32:16.337Z,10272
2017-09-05T11:33:16.341Z,13424
2017-09-05T11:34:16.322Z,13192
2017-09-05T11:35:16.349Z,12772
2017-09-05T11:36:16.324Z,11956
2017-09-05T11:37:16.364Z,10576
2017-09-05T11:38:15.975Z,10784
2017-09-05T11:39:15.964Z,11328
2017-09-05T11:40:15.951Z,12664
2017-09-05T11:41:16.268Z,11772
2017-09-05T11:42:16.277Z,13628
2017-09-05T11:43:15.617Z,10544
2017-09-05T11:44:15.928Z,10080
2017-09-05T11:45:15.909Z,9324
2017-09-05T11:46:15.907Z,8732
2017-09-05T11:47:15.896Z,8296
2017-09-05T11:48:15.906Z,7916
2017-09-05T11:49:15.578Z,7252
2017-09-05T11:50:16.186Z,6848
2017-09-05T11:51:15.569Z,6500
2017-09-05T11:52:15.919Z,6604
2017-09-05T11:53:15.855Z,6436
2017-09-05T11:54:16.175Z,5876
2017-09-05T11:55:16.144Z,4632
2017-09-05T11:56:16.384Z,3868
2017-09-05T11:57:15.506Z,3432
2017-09-05T11:58:16.182Z,3336
2017-09-05T11:59:16.132Z,3168
2017-09-05T12:00:15.956Z,2932
2017-09-05T12:01:16.124Z,2628
2017-09-05T12:02:15.917Z,2344
2017-09-05T12:03:15.757Z,2072
2017-09-05T12:04:16.078Z,1872
2017-09-05T12:05:15.746Z,1832
2017-09-05T12:06:16.049Z,1792
2017-09-05T12:07:15.739Z,1652
2017-09-05T12:08:15.733Z,1572
2017-09-05T12:09:15.701Z,1512
2017-09-05T12:10:16.007Z,1540
2017-09-05T12:11:15.922Z,1676
2017-09-05T12:12:15.679Z,1784
2017-09-05T12:13:15.682Z,1752
2017-09-05T12:14:15.720Z,1564
2017-09-05T12:15:15.963Z,1368
2017-09-05T12:16:15.658Z,1204
2017-09-05T12:17:15.959Z,1060
2017-09-05T12:18:15.934Z,952
2017-09-05T12:19:15.924Z,876
2017-09-05T12:20:15.658Z,836
2017-09-05T12:21:15.473Z,820
2017-09-05T12:22:15.276Z,896
2017-09-05T12:23:15.896Z,1000
2017-09-05T12:24:15.569Z,1096
2017-09-05T12:25:15.540Z,1112
2017-09-05T12:26:15.886Z,1096
2017-09-05T12:27:15.537Z,1104
2017-09-05T12:28:15.837Z,1128
2017-09-05T12:29:15.515Z,1136
2017-09-05T12:30:15.505Z,1152
2017-09-05T12:31:15.481Z,1168
2017-09-05T12:32:15.787Z,1212
2017-09-05T12:33:15.775Z,1256
2017-09-05T12:34:15.767Z,1252
2017-09-05T12:35:15.426Z,1248
2017-09-05T12:36:15.755Z,1236
2017-09-05T12:37:15.727Z,1208
2017-09-05T12:38:15.726Z,1184
2017-09-05T12:39:15.711Z,1208
2017-09-05T12:40:15.697Z,1244
2017-09-05T12:41:15.386Z,1264
2017-09-05T12:42:15.389Z,1284
2017-09-05T12:43:15.678Z,1344
2017-09-05T12:44:15.349Z,1400
2017-09-05T12:45:15.337Z,1492
2017-09-05T12:46:15.649Z,1600
2017-09-05T12:47:15.637Z,1756
2017-09-05T12:48:15.308Z,1876
2017-09-05T12:49:15.288Z,1936
2017-09-05T12:50:15.608Z,2020
2017-09-05T12:51:15.600Z,2144
2017-09-05T12:52:14.951Z,2268
2017-09-05T12:53:15.554Z,2508
2017-09-05T12:54:15.558Z,2812
2017-09-05T12:55:15.559Z,3076
2017-09-05T12:56:15.222Z,3376
2017-09-05T12:57:14.594Z,3616
2017-09-05T12:58:15.207Z,3848
2017-09-05T12:59:15.264Z,3816
2017-09-05T13:00:14.867Z,3864
2017-09-05T13:01:15.169Z,4068
2017-09-05T13:02:15.519Z,4236
2017-09-05T13:03:15.500Z,4224
2017-09-05T13:04:15.576Z,4100
2017-09-05T13:05:15.147Z,4068
2017-09-05T13:06:15.177Z,4040
2017-09-05T13:07:15.508Z,3964
2017-09-05T13:08:15.407Z,3564
2017-09-05T13:09:14.506Z,3060
2017-09-05T13:10:15.199Z,2680
2017-09-05T13:11:15.477Z,2352
2017-09-05T13:12:15.533Z,2208
2017-09-05T13:13:15.056Z,2132
2017-09-05T13:14:15.034Z,1936
2017-09-05T13:15:15.361Z,1668
2017-09-05T13:16:15.028Z,1364
2017-09-05T13:17:15.317Z,1104
2017-09-05T13:18:15.306Z,960
2017-09-05T13:19:15.000Z,876
2017-09-05T13:20:15.298Z,836
2017-09-05T13:21:15.297Z,780
2017-09-05T13:22:14.952Z,724
2017-09-05T13:23:14.947Z,712
2017-09-05T13:24:14.622Z,716
2017-09-05T13:25:15.239Z,700
2017-09-05T13:26:14.606Z,660
2017-09-05T13:27:14.924Z,628
2017-09-05T13:28:14.585Z,624
2017-09-05T13:29:15.182Z,628
2017-09-05T13:30:15.206Z,616
2017-09-05T13:31:15.150Z,624
2017-09-05T13:32:15.144Z,644
2017-09-05T13:33:15.150Z,688
2017-09-05T13:34:15.149Z,764
2017-09-05T13:35:14.518Z,840
2017-09-05T13:36:15.109Z,912
2017-09-05T13:37:14.800Z,956
2017-09-05T13:38:15.080Z,1012
2017-09-05T13:39:15.118Z,1008
2017-09-05T13:40:15.084Z,1000
2017-09-05T13:41:14.834Z,996
2017-09-05T13:42:15.077Z,1056
2017-09-05T13:43:15.035Z,1124